»·PEaware :: N520YK KASE-KCOS

N520YK :: KASE-KCOS

FLIGHT INFORMATION

Flight Status: Arrived
Operator: Privately registered:
United States
More flights under this callsign
Pilot: Henderson P. (1210)
Aircraft: BEECH AIRCRAFT SUPER KING AIR COMMUTER
(BE20)
More flights by this aircraft type
Origin: KASE Aspen-Pitkin Co/Sardy
United States
Destination: KCOS City Of Colorado Springs Mun
United States
More flights between these airports :: More routes between these airports
Route: +LINDZ9 DBL V108 BRK
File this flight plan on PilotEdge
Remarks:
Altitude:
(Current/Filed)
17,000ft
Speed:
(Current/Filed)
282kts
Departed: 20-Jul-19 11:59 AM
Arrived: 20-Jul-19 12:37 PM
Distance/Time
Traveled:
103nm/0:38
Distance/Time
To Go:
Arrived

Flight Plot

Page will automatically refresh every two minutes.

Flight plan parsing failed; only flown route is shown


Map Options




Map Legend


Flown Route
Filed Route
Departure Airport
Arrival Airport
Navaid (VOR, NDB)
Fix

Horizontal Profiles

Position Reports

Time Latitude Longitude Heading Altitude Ground
Speed
20-Jul-19 11:38 39.222641 -106.867039 250 7740ft 0kts
20-Jul-19 11:39 39.222641 -106.867039 250 7740ft 0kts
20-Jul-19 11:40 39.222641 -106.867039 250 7740ft 0kts
20-Jul-19 11:41 39.222641 -106.867039 250 7740ft 0kts
20-Jul-19 11:42 39.222640 -106.867040 250 7740ft 0kts
20-Jul-19 11:43 39.222640 -106.867042 250 7740ft 0kts
20-Jul-19 11:44 39.222639 -106.867044 250 7740ft 0kts
20-Jul-19 11:45 39.222638 -106.867047 250 7740ft 0kts
20-Jul-19 11:46 39.222638 -106.867050 250 7740ft 0kts
20-Jul-19 11:47 39.222637 -106.867053 250 7740ft 0kts
20-Jul-19 11:48 39.222636 -106.867056 250 7740ft 0kts
20-Jul-19 11:49 39.222635 -106.867059 250 7740ft 0kts
20-Jul-19 11:50 39.222634 -106.867062 250 7740ft 0kts
20-Jul-19 11:51 39.222633 -106.867065 250 7740ft 0kts
20-Jul-19 11:52 39.222612 -106.867141 249 7740ft 2kts
20-Jul-19 11:53 39.219486 -106.865962 159 7740ft 18kts
20-Jul-19 11:54 39.214402 -106.863533 159 7740ft 18kts
20-Jul-19 11:55 39.212158 -106.862518 177 7740ft 0kts
20-Jul-19 11:56 39.212149 -106.862517 177 7740ft 0kts
20-Jul-19 11:58 39.212142 -106.862517 177 7740ft 0kts
20-Jul-19 11:59 39.212918 -106.864039 338 7740ft 45kts
20-Jul-19 12:00 39.247251 -106.877134 342 9464ft 143kts
20-Jul-19 12:01 39.266151 -106.920778 281 11905ft 162kts
20-Jul-19 12:02 39.277611 -106.983466 281 13670ft 192kts
20-Jul-19 12:03 39.302982 -107.043586 314 15653ft 202kts
20-Jul-19 12:04 39.344887 -107.096042 310 17073ft 231kts
20-Jul-19 12:05 39.406721 -107.128259 19 17116ft 283kts
20-Jul-19 12:06 39.436118 -107.041644 101 17063ft 289kts
20-Jul-19 12:07 39.431414 -106.937006 85 17023ft 294kts
20-Jul-19 12:08 39.424918 -106.833423 106 17015ft 289kts
20-Jul-19 12:09 39.403732 -106.733434 107 17043ft 287kts
20-Jul-19 12:10 39.382477 -106.633633 107 17086ft 287kts
20-Jul-19 12:11 39.361801 -106.533833 107 17144ft 287kts
20-Jul-19 12:12 39.340974 -106.434509 108 17193ft 285kts
20-Jul-19 12:13 39.319330 -106.336032 108 17212ft 286kts
20-Jul-19 12:14 39.298004 -106.237059 107 17219ft 285kts
20-Jul-19 12:15 39.276963 -106.138446 107 17242ft 283kts
20-Jul-19 12:16 39.256023 -106.040798 108 17289ft 283kts
20-Jul-19 12:16 39.238521 -105.959422 108 17299ft 280kts
20-Jul-19 12:17 39.217932 -105.862855 107 17281ft 277kts
20-Jul-19 12:19 39.193551 -105.750322 108 17274ft 283kts
20-Jul-19 12:19 39.175134 -105.668729 108 17263ft 286kts
20-Jul-19 12:20 39.153477 -105.569888 107 17285ft 286kts
20-Jul-19 12:21 39.132148 -105.471003 108 17292ft 286kts
20-Jul-19 12:23 39.105728 -105.356511 108 17265ft 286kts
20-Jul-19 12:23 39.087520 -105.275753 108 17172ft 275kts
20-Jul-19 12:24 39.067178 -105.183747 107 17375ft 270kts
20-Jul-19 12:25 39.043058 -105.072978 109 16055ft 340kts
20-Jul-19 12:26 39.005439 -104.966746 117 14985ft 308kts
20-Jul-19 12:27 38.970845 -104.880557 117 13984ft 245kts
20-Jul-19 12:28 38.939590 -104.804509 117 12966ft 228kts
20-Jul-19 12:29 38.911013 -104.737006 117 11952ft 207kts
20-Jul-19 12:30 38.883197 -104.673795 122 10946ft 199kts
20-Jul-19 12:31 38.832421 -104.657082 177 9564ft 195kts
20-Jul-19 12:32 38.781290 -104.655702 176 7588ft 164kts
20-Jul-19 12:33 38.750179 -104.675170 271 7129ft 127kts
20-Jul-19 12:34 38.758163 -104.714953 343 6737ft 104kts
20-Jul-19 12:35 38.784364 -104.715998 1 6382ft 103kts
20-Jul-19 12:36 38.807070 -104.715929 0 6188ft 40kts
20-Jul-19 12:37 38.810260 -104.716776 181 6188ft 9kts
20-Jul-19 12:38 38.807189 -104.716800 180 6188ft 11kts
20-Jul-19 12:39 38.805214 -104.718946 92 6188ft 4kts
20-Jul-19 12:40 38.805212 -104.718827 91 6188ft 0kts
20-Jul-19 12:41 38.805212 -104.718827 91 6188ft 0kts
20-Jul-19 12:42 38.805212 -104.718827 91 6188ft 0kts
20-Jul-19 12:43 38.805212 -104.718827 91 6188ft 0kts
20-Jul-19 12:44 38.805212 -104.718827 91 6188ft 0kts
20-Jul-19 12:45 38.805212 -104.718827 91 6188ft 0kts
20-Jul-19 12:46 38.805212 -104.718827 91 6188ft 0kts
20-Jul-19 12:47 38.805212 -104.718827 91 6188ft 0kts
20-Jul-19 12:48 38.805212 -104.718827 91 6188ft 0kts
20-Jul-19 12:49 38.805212 -104.718827 91 6188ft 0kts
20-Jul-19 12:50 38.805212 -104.718827 91 6188ft 0kts

Navigation Log

Ident Type
Flight plan parsing failed, navigation log unavailable